sensor_id;sensor_type;location;lat;lon;timestamp;pressure;altitude;pressure_sealevel;temperature;humidity
77626;BME280;66794;43.764;10.436;2023-06-14T00:01:40;101280.72;;;18.22;100.00
77626;BME280;66794;43.764;10.436;2023-06-14T00:04:25;101306.63;;;18.33;100.00
77626;BME280;66794;43.764;10.436;2023-06-14T00:07:11;101301.13;;;18.26;100.00
77626;BME280;66794;43.764;10.436;2023-06-14T00:09:59;101295.84;;;18.31;100.00
77626;BME280;66794;43.764;10.436;2023-06-14T00:12:45;101290.78;;;18.35;100.00
77626;BME280;66794;43.764;10.436;2023-06-14T00:15:31;101296.69;;;18.45;100.00
77626;BME280;66794;43.764;10.436;2023-06-14T00:18:17;101299.63;;;18.50;100.00
77626;BME280;66794;43.764;10.436;2023-06-14T00:21:03;101283.19;;;18.44;100.00
77626;BME280;66794;43.764;10.436;2023-06-14T00:23:49;101271.63;;;18.28;100.00
77626;BME280;66794;43.764;10.436;2023-06-14T00:26:35;101280.03;;;18.40;100.00
77626;BME280;66794;43.764;10.436;2023-06-14T00:29:21;101269.69;;;18.35;100.00
77626;BME280;66794;43.764;10.436;2023-06-14T00:32:07;101270.75;;;18.34;100.00
77626;BME280;66794;43.764;10.436;2023-06-14T00:34:53;101255.50;;;18.52;100.00
77626;BME280;66794;43.764;10.436;2023-06-14T00:37:39;101251.13;;;18.44;100.00
77626;BME280;66794;43.764;10.436;2023-06-14T00:40:24;101240.16;;;18.44;100.00
77626;BME280;66794;43.764;10.436;2023-06-14T00:43:10;101260.22;;;18.38;100.00
77626;BME280;66794;43.764;10.436;2023-06-14T00:45:56;101251.34;;;18.36;100.00
77626;BME280;66794;43.764;10.436;2023-06-14T00:48:42;101254.06;;;18.43;100.00
77626;BME280;66794;43.764;10.436;2023-06-14T00:51:28;101247.78;;;18.29;100.00
77626;BME280;66794;43.764;10.436;2023-06-14T00:54:14;101242.31;;;18.29;100.00
77626;BME280;66794;43.764;10.436;2023-06-14T00:57:00;101197.63;;;18.22;100.00
77626;BME280;66794;43.764;10.436;2023-06-14T00:59:47;101235.41;;;18.64;100.00
77626;BME280;66794;43.764;10.436;2023-06-14T01:02:34;101239.22;;;18.70;100.00
77626;BME280;66794;43.764;10.436;2023-06-14T01:05:20;101226.13;;;18.72;100.00
77626;BME280;66794;43.764;10.436;2023-06-14T01:08:31;101223.34;;;18.79;100.00
77626;BME280;66794;43.764;10.436;2023-06-14T01:11:28;101222.28;;;18.80;100.00
77626;BME280;66794;43.764;10.436;2023-06-14T01:14:17;101217.81;;;18.85;100.00
77626;BME280;66794;43.764;10.436;2023-06-14T01:17:04;101215.91;;;18.92;100.00
77626;BME280;66794;43.764;10.436;2023-06-14T01:19:51;101213.81;;;18.88;100.00
77626;BME280;66794;43.764;10.436;2023-06-14T01:22:50;101201.94;;;18.94;100.00
77626;BME280;66794;43.764;10.436;2023-06-14T01:25:37;101202.00;;;18.87;100.00
77626;BME280;66794;43.764;10.436;2023-06-14T01:28:24;101203.25;;;18.85;100.00
77626;BME280;66794;43.764;10.436;2023-06-14T01:31:12;101186.00;;;18.78;100.00
77626;BME280;66794;43.764;10.436;2023-06-14T01:33:58;101193.81;;;18.74;100.00
77626;BME280;66794;43.764;10.436;2023-06-14T01:36:44;101215.72;;;18.87;100.00
77626;BME280;66794;43.764;10.436;2023-06-14T01:39:31;101218.31;;;18.76;100.00
77626;BME280;66794;43.764;10.436;2023-06-14T01:42:18;101207.38;;;18.62;100.00
77626;BME280;66794;43.764;10.436;2023-06-14T01:45:05;101209.81;;;18.84;100.00
77626;BME280;66794;43.764;10.436;2023-06-14T01:47:51;101207.06;;;18.84;100.00
77626;BME280;66794;43.764;10.436;2023-06-14T01:50:38;101212.75;;;18.89;100.00
77626;BME280;66794;43.764;10.436;2023-06-14T01:53:23;101208.16;;;18.83;100.00
77626;BME280;66794;43.764;10.436;2023-06-14T01:56:09;101214.84;;;18.94;100.00
77626;BME280;66794;43.764;10.436;2023-06-14T01:58:55;101221.69;;;18.78;100.00
77626;BME280;66794;43.764;10.436;2023-06-14T02:01:41;101231.22;;;18.62;100.00
77626;BME280;66794;43.764;10.436;2023-06-14T02:04:27;101224.28;;;18.53;100.00
77626;BME280;66794;43.764;10.436;2023-06-14T02:07:13;101223.66;;;18.51;100.00
77626;BME280;66794;43.764;10.436;2023-06-14T02:10:00;101218.16;;;18.57;100.00
77626;BME280;66794;43.764;10.436;2023-06-14T02:12:45;101220.25;;;18.62;100.00
77626;BME280;66794;43.764;10.436;2023-06-14T02:15:32;101223.22;;;18.60;100.00
77626;BME280;66794;43.764;10.436;2023-06-14T02:18:21;101225.97;;;18.60;100.00
77626;BME280;66794;43.764;10.436;2023-06-14T02:21:07;101225.31;;;18.58;100.00
77626;BME280;66794;43.764;10.436;2023-06-14T02:23:52;101217.13;;;18.52;100.00
77626;BME280;66794;43.764;10.436;2023-06-14T02:26:39;101220.72;;;18.46;100.00
77626;BME280;66794;43.764;10.436;2023-06-14T02:29:26;101210.84;;;18.38;100.00
77626;BME280;66794;43.764;10.436;2023-06-14T02:32:12;101231.09;;;18.44;100.00
77626;BME280;66794;43.764;10.436;2023-06-14T02:34:58;101231.09;;;18.44;100.00
77626;BME280;66794;43.764;10.436;2023-06-14T02:37:44;101232.59;;;18.26;100.00
77626;BME280;66794;43.764;10.436;2023-06-14T02:40:30;101236.81;;;18.29;100.00
77626;BME280;66794;43.764;10.436;2023-06-14T02:43:16;101237.88;;;18.21;100.00
77626;BME280;66794;43.764;10.436;2023-06-14T02:46:03;101191.56;;;18.00;100.00
77626;BME280;66794;43.764;10.436;2023-06-14T02:48:49;101221.66;;;18.20;100.00
77626;BME280;66794;43.764;10.436;2023-06-14T02:51:35;101222.25;;;18.35;100.00
77626;BME280;66794;43.764;10.436;2023-06-14T02:54:21;101207.09;;;18.19;100.00
77626;BME280;66794;43.764;10.436;2023-06-14T02:57:07;101198.25;;;18.24;100.00
77626;BME280;66794;43.764;10.436;2023-06-14T02:59:53;101208.16;;;18.18;100.00
77626;BME280;66794;43.764;10.436;2023-06-14T03:02:39;101216.16;;;18.26;100.00
77626;BME280;66794;43.764;10.436;2023-06-14T03:05:25;101210.25;;;18.29;100.00
77626;BME280;66794;43.764;10.436;2023-06-14T03:08:13;101214.06;;;18.15;100.00
77626;BME280;66794;43.764;10.436;2023-06-14T03:11:04;101194.66;;;18.23;100.00
77626;BME280;66794;43.764;10.436;2023-06-14T03:13:51;101209.44;;;18.16;100.00
77626;BME280;66794;43.764;10.436;2023-06-14T03:16:37;101204.59;;;18.18;100.00
77626;BME280;66794;43.764;10.436;2023-06-14T03:19:23;101209.00;;;18.19;100.00
77626;BME280;66794;43.764;10.436;2023-06-14T03:22:09;101204.59;;;18.18;100.00
77626;BME280;66794;43.764;10.436;2023-06-14T03:24:57;101182.47;;;18.12;100.00
77626;BME280;66794;43.764;10.436;2023-06-14T03:27:44;101192.34;;;18.20;100.00
77626;BME280;66794;43.764;10.436;2023-06-14T03:30:31;101189.81;;;18.19;100.00
77626;BME280;66794;43.764;10.436;2023-06-14T03:33:16;101184.75;;;18.22;100.00
77626;BME280;66794;43.764;10.436;2023-06-14T03:36:02;101184.31;;;18.25;100.00
77626;BME280;66794;43.764;10.436;2023-06-14T03:38:48;101192.50;;;18.38;100.00
77626;BME280;66794;43.764;10.436;2023-06-14T03:41:34;101195.63;;;18.49;100.00
77626;BME280;66794;43.764;10.436;2023-06-14T03:44:20;101173.63;;;18.04;100.00
77626;BME280;66794;43.764;10.436;2023-06-14T03:47:06;101196.34;;;18.24;100.00
77626;BME280;66794;43.764;10.436;2023-06-14T03:49:52;101210.25;;;18.29;100.00
77626;BME280;66794;43.764;10.436;2023-06-14T03:52:38;101188.16;;;18.11;100.00
77626;BME280;66794;43.764;10.436;2023-06-14T03:55:24;101204.53;;;18.31;100.00
77626;BME280;66794;43.764;10.436;2023-06-14T03:58:13;101208.75;;;18.33;100.00
77626;BME280;66794;43.764;10.436;2023-06-14T04:00:58;101231.56;;;18.27;100.00
77626;BME280;66794;43.764;10.436;2023-06-14T04:03:44;101214.69;;;18.24;100.00
77626;BME280;66794;43.764;10.436;2023-06-14T04:06:30;101234.06;;;18.29;100.00
77626;BME280;66794;43.764;10.436;2023-06-14T04:09:19;101239.78;;;18.21;100.00
77626;BME280;66794;43.764;10.436;2023-06-14T04:12:05;101241.47;;;18.28;100.00
77626;BME280;66794;43.764;10.436;2023-06-14T04:14:51;101241.50;;;18.08;100.00
77626;BME280;66794;43.764;10.436;2023-06-14T04:17:38;101254.59;;;18.00;100.00
77626;BME280;66794;43.764;10.436;2023-06-14T04:20:24;101254.59;;;18.00;100.00
77626;BME280;66794;43.764;10.436;2023-06-14T04:23:14;101279.66;;;18.23;100.00
77626;BME280;66794;43.764;10.436;2023-06-14T04:26:00;101262.16;;;18.18;100.00
77626;BME280;66794;43.764;10.436;2023-06-14T04:28:48;101268.66;;;18.30;100.00
77626;BME280;66794;43.764;10.436;2023-06-14T04:31:35;101276.22;;;18.41;100.00
77626;BME280;66794;43.764;10.436;2023-06-14T04:34:23;101254.94;;;18.43;100.00
77626;BME280;66794;43.764;10.436;2023-06-14T04:37:09;101273.69;;;18.39;100.00
77626;BME280;66794;43.764;10.436;2023-06-14T04:39:55;101261.28;;;18.30;100.00
77626;BME280;66794;43.764;10.436;2023-06-14T04:42:41;101273.06;;;18.37;100.00
77626;BME280;66794;43.764;10.436;2023-06-14T04:45:30;101278.16;;;18.21;100.00
77626;BME280;66794;43.764;10.436;2023-06-14T04:48:17;101266.19;;;17.95;100.00
77626;BME280;66794;43.764;10.436;2023-06-14T04:51:05;101271.63;;;18.15;100.00
77626;BME280;66794;43.764;10.436;2023-06-14T04:53:51;101275.22;;;18.16;100.00
77626;BME280;66794;43.764;10.436;2023-06-14T04:56:38;101283.44;;;18.29;100.00
77626;BME280;66794;43.764;10.436;2023-06-14T04:59:23;101263.00;;;18.11;100.00
77626;BME280;66794;43.764;10.436;2023-06-14T05:02:10;101266.13;;;18.35;100.00
77626;BME280;66794;43.764;10.436;2023-06-14T05:04:57;101272.78;;;18.59;100.00
77626;BME280;66794;43.764;10.436;2023-06-14T05:07:43;101268.97;;;18.66;100.00
77626;BME280;66794;43.764;10.436;2023-06-14T05:10:28;101251.91;;;18.71;100.00
77626;BME280;66794;43.764;10.436;2023-06-14T05:13:14;101258.41;;;18.77;100.00
77626;BME280;66794;43.764;10.436;2023-06-14T05:16:01;101264.88;;;18.89;100.00
77626;BME280;66794;43.764;10.436;2023-06-14T05:18:46;101261.50;;;18.94;100.00
77626;BME280;66794;43.764;10.436;2023-06-14T05:21:33;101259.13;;;18.97;100.00
77626;BME280;66794;43.764;10.436;2023-06-14T05:24:21;101250.56;;;18.87;100.00
77626;BME280;66794;43.764;10.436;2023-06-14T05:27:07;101254.72;;;18.96;100.00
77626;BME280;66794;43.764;10.436;2023-06-14T05:29:53;101243.31;;;18.99;100.00
77626;BME280;66794;43.764;10.436;2023-06-14T05:32:44;101230.66;;;18.98;100.00
77626;BME280;66794;43.764;10.436;2023-06-14T05:35:30;101226.38;;;19.02;100.00
77626;BME280;66794;43.764;10.436;2023-06-14T05:38:16;101225.28;;;19.10;100.00
77626;BME280;66794;43.764;10.436;2023-06-14T05:41:01;101217.00;;;19.16;100.00
77626;BME280;66794;43.764;10.436;2023-06-14T05:43:47;101211.09;;;19.20;100.00
77626;BME280;66794;43.764;10.436;2023-06-14T05:46:33;101204.41;;;19.34;100.00
77626;BME280;66794;43.764;10.436;2023-06-14T05:49:19;101215.75;;;19.44;100.00
77626;BME280;66794;43.764;10.436;2023-06-14T05:52:05;101214.78;;;19.32;100.00
77626;BME280;66794;43.764;10.436;2023-06-14T05:54:51;101211.31;;;19.43;100.00
77626;BME280;66794;43.764;10.436;2023-06-14T05:57:37;101208.91;;;19.53;100.00
77626;BME280;66794;43.764;10.436;2023-06-14T06:00:23;101209.22;;;19.70;100.00
77626;BME280;66794;43.764;10.436;2023-06-14T06:03:08;101219.41;;;19.88;100.00
77626;BME280;66794;43.764;10.436;2023-06-14T06:05:56;101211.34;;;19.68;100.00
77626;BME280;66794;43.764;10.436;2023-06-14T06:08:42;101245.28;;;19.80;100.00
77626;BME280;66794;43.764;10.436;2023-06-14T06:11:28;101258.06;;;19.93;100.00
77626;BME280;66794;43.764;10.436;2023-06-14T06:14:14;101238.53;;;19.76;100.00
77626;BME280;66794;43.764;10.436;2023-06-14T06:17:00;101250.28;;;19.90;100.00
77626;BME280;66794;43.764;10.436;2023-06-14T06:19:45;101233.38;;;19.86;100.00
77626;BME280;66794;43.764;10.436;2023-06-14T06:22:31;101245.91;;;20.01;100.00
77626;BME280;66794;43.764;10.436;2023-06-14T06:25:17;101246.16;;;19.99;100.00
77626;BME280;66794;43.764;10.436;2023-06-14T06:28:04;101242.97;;;19.77;100.00
77626;BME280;66794;43.764;10.436;2023-06-14T06:30:49;101236.06;;;19.93;100.00
77626;BME280;66794;43.764;10.436;2023-06-14T06:33:36;101245.72;;;20.20;100.00
77626;BME280;66794;43.764;10.436;2023-06-14T06:36:02;101243.47;;;20.11;100.00
77626;BME280;66794;43.764;10.436;2023-06-14T06:38:27;101227.69;;;20.06;100.00
77626;BME280;66794;43.764;10.436;2023-06-14T06:40:54;101237.41;;;19.84;100.00
77626;BME280;66794;43.764;10.436;2023-06-14T06:43:20;101255.69;;;19.96;100.00
77626;BME280;66794;43.764;10.436;2023-06-14T06:45:45;101258.78;;;19.82;100.00
77626;BME280;66794;43.764;10.436;2023-06-14T06:48:11;101245.63;;;19.65;100.00
77626;BME280;66794;43.764;10.436;2023-06-14T06:50:36;101254.13;;;19.82;100.00
77626;BME280;66794;43.764;10.436;2023-06-14T06:53:02;101257.53;;;19.78;100.00
77626;BME280;66794;43.764;10.436;2023-06-14T06:55:27;101260.56;;;19.94;100.00
77626;BME280;66794;43.764;10.436;2023-06-14T06:57:53;101261.72;;;20.05;100.00
77626;BME280;66794;43.764;10.436;2023-06-14T07:00:20;101267.47;;;20.04;100.00
77626;BME280;66794;43.764;10.436;2023-06-14T07:02:46;101269.94;;;20.12;100.00
77626;BME280;66794;43.764;10.436;2023-06-14T07:05:13;101270.38;;;20.27;100.00
77626;BME280;66794;43.764;10.436;2023-06-14T07:07:38;101255.47;;;20.16;100.00
77626;BME280;66794;43.764;10.436;2023-06-14T07:10:04;101258.09;;;20.30;100.00
77626;BME280;66794;43.764;10.436;2023-06-14T07:12:31;101261.22;;;20.33;100.00
77626;BME280;66794;43.764;10.436;2023-06-14T07:14:59;101279.75;;;20.63;100.00
77626;BME280;66794;43.764;10.436;2023-06-14T07:17:25;101263.66;;;20.66;100.00
77626;BME280;66794;43.764;10.436;2023-06-14T07:19:50;101265.41;;;20.61;100.00
77626;BME280;66794;43.764;10.436;2023-06-14T07:22:16;101275.22;;;20.87;100.00
77626;BME280;66794;43.764;10.436;2023-06-14T07:24:43;101252.75;;;20.90;100.00
77626;BME280;66794;43.764;10.436;2023-06-14T07:27:08;101273.34;;;21.17;100.00
77626;BME280;66794;43.764;10.436;2023-06-14T07:29:34;101262.16;;;21.12;100.00
77626;BME280;66794;43.764;10.436;2023-06-14T07:32:00;101254.38;;;21.39;100.00
77626;BME280;66794;43.764;10.436;2023-06-14T07:34:25;101248.63;;;21.41;100.00
77626;BME280;66794;43.764;10.436;2023-06-14T07:36:51;101271.19;;;21.49;100.00
77626;BME280;66794;43.764;10.436;2023-06-14T07:39:16;101282.56;;;21.23;100.00
77626;BME280;66794;43.764;10.436;2023-06-14T07:41:42;101272.97;;;21.25;100.00
77626;BME280;66794;43.764;10.436;2023-06-14T07:44:07;101279.63;;;21.36;100.00
77626;BME280;66794;43.764;10.436;2023-06-14T07:46:33;101294.19;;;21.43;100.00
77626;BME280;66794;43.764;10.436;2023-06-14T07:49:00;101265.66;;;21.19;100.00
77626;BME280;66794;43.764;10.436;2023-06-14T07:51:25;101289.47;;;21.32;100.00
77626;BME280;66794;43.764;10.436;2023-06-14T07:53:51;101284.13;;;21.49;100.00
77626;BME280;66794;43.764;10.436;2023-06-14T07:56:16;101273.44;;;21.41;100.00
77626;BME280;66794;43.764;10.436;2023-06-14T07:58:42;101277.69;;;21.67;100.00
77626;BME280;66794;43.764;10.436;2023-06-14T08:01:08;101242.94;;;21.54;100.00
77626;BME280;66794;43.764;10.436;2023-06-14T08:03:34;101259.47;;;21.77;100.00
77626;BME280;66794;43.764;10.436;2023-06-14T08:06:00;101240.88;;;21.61;100.00
77626;BME280;66794;43.764;10.436;2023-06-14T08:08:26;101255.19;;;21.82;100.00
77626;BME280;66794;43.764;10.436;2023-06-14T08:10:52;101255.56;;;22.20;100.00
77626;BME280;66794;43.764;10.436;2023-06-14T08:13:17;101256.16;;;22.11;100.00
77626;BME280;66794;43.764;10.436;2023-06-14T08:15:43;101261.28;;;22.54;100.00
77626;BME280;66794;43.764;10.436;2023-06-14T08:18:09;101257.63;;;22.65;100.00
77626;BME280;66794;43.764;10.436;2023-06-14T08:20:34;101251.22;;;22.01;100.00
77626;BME280;66794;43.764;10.436;2023-06-14T08:23:04;101246.56;;;22.25;100.00
77626;BME280;66794;43.764;10.436;2023-06-14T08:25:30;101248.78;;;22.63;100.00
77626;BME280;66794;43.764;10.436;2023-06-14T08:27:56;101252.41;;;22.52;100.00
77626;BME280;66794;43.764;10.436;2023-06-14T08:30:22;101260.13;;;22.78;100.00
77626;BME280;66794;43.764;10.436;2023-06-14T08:32:48;101251.00;;;22.78;100.00
77626;BME280;66794;43.764;10.436;2023-06-14T08:35:13;101254.84;;;22.77;100.00
77626;BME280;66794;43.764;10.436;2023-06-14T08:37:40;101225.38;;;22.94;100.00
77626;BME280;66794;43.764;10.436;2023-06-14T08:40:20;101228.91;;;23.35;100.00
77626;BME280;66794;43.764;10.436;2023-06-14T08:42:54;101217.19;;;23.61;100.00
77626;BME280;66794;43.764;10.436;2023-06-14T08:45:23;101237.03;;;23.58;100.00
77626;BME280;66794;43.764;10.436;2023-06-14T08:47:50;101237.94;;;23.30;100.00
77626;BME280;66794;43.764;10.436;2023-06-14T08:50:24;101224.25;;;23.69;100.00
77626;BME280;66794;43.764;10.436;2023-06-14T08:52:56;101219.03;;;23.56;100.00
77626;BME280;66794;43.764;10.436;2023-06-14T08:55:26;101231.41;;;23.65;100.00
77626;BME280;66794;43.764;10.436;2023-06-14T08:57:57;101228.53;;;23.77;100.00
77626;BME280;66794;43.764;10.436;2023-06-14T09:00:27;101223.13;;;23.53;100.00
77626;BME280;66794;43.764;10.436;2023-06-14T09:02:53;101226.97;;;24.03;100.00
77626;BME280;66794;43.764;10.436;2023-06-14T09:05:25;101225.09;;;24.25;100.00
77626;BME280;66794;43.764;10.436;2023-06-14T09:07:51;101200.81;;;24.10;100.00
77626;BME280;66794;43.764;10.436;2023-06-14T09:10:18;101214.97;;;24.53;100.00
77626;BME280;66794;43.764;10.436;2023-06-14T09:12:43;101211.41;;;24.35;100.00
77626;BME280;66794;43.764;10.436;2023-06-14T09:15:09;101218.78;;;24.47;100.00
77626;BME280;66794;43.764;10.436;2023-06-14T09:17:36;101208.00;;;24.72;100.00
77626;BME280;66794;43.764;10.436;2023-06-14T09:20:06;101206.38;;;24.32;100.00
77626;BME280;66794;43.764;10.436;2023-06-14T09:22:36;101205.09;;;24.40;100.00
77626;BME280;66794;43.764;10.436;2023-06-14T09:25:03;101207.19;;;24.50;100.00
77626;BME280;66794;43.764;10.436;2023-06-14T09:27:29;101185.72;;;24.62;100.00
77626;BME280;66794;43.764;10.436;2023-06-14T09:29:54;101168.13;;;24.73;100.00
77626;BME280;66794;43.764;10.436;2023-06-14T09:32:21;101174.69;;;24.67;100.00
77626;BME280;66794;43.764;10.436;2023-06-14T09:34:47;101196.44;;;25.29;100.00
77626;BME280;66794;43.764;10.436;2023-06-14T09:37:12;101196.75;;;25.70;100.00
77626;BME280;66794;43.764;10.436;2023-06-14T09:39:58;101186.63;;;25.54;100.00
77626;BME280;66794;43.764;10.436;2023-06-14T09:42:24;101182.88;;;25.70;100.00
77626;BME280;66794;43.764;10.436;2023-06-14T09:44:52;101185.00;;;25.58;100.00
77626;BME280;66794;43.764;10.436;2023-06-14T09:47:19;101165.06;;;26.03;100.00
77626;BME280;66794;43.764;10.436;2023-06-14T09:49:45;101166.84;;;26.25;100.00
77626;BME280;66794;43.764;10.436;2023-06-14T09:52:19;101162.91;;;26.83;100.00
77626;BME280;66794;43.764;10.436;2023-06-14T09:54:47;101169.66;;;27.33;100.00
77626;BME280;66794;43.764;10.436;2023-06-14T09:57:20;101160.50;;;26.34;100.00
77626;BME280;66794;43.764;10.436;2023-06-14T09:59:46;101142.06;;;26.81;100.00
77626;BME280;66794;43.764;10.436;2023-06-14T10:02:26;101146.03;;;27.36;100.00
77626;BME280;66794;43.764;10.436;2023-06-14T10:05:06;101146.19;;;26.63;100.00
77626;BME280;66794;43.764;10.436;2023-06-14T10:08:02;101140.69;;;26.88;100.00
77626;BME280;66794;43.764;10.436;2023-06-14T10:10:29;101148.72;;;26.64;100.00
77626;BME280;66794;43.764;10.436;2023-06-14T10:12:56;101126.97;;;26.46;100.00
77626;BME280;66794;43.764;10.436;2023-06-14T10:15:32;101139.91;;;26.25;100.00
77626;BME280;66794;43.764;10.436;2023-06-14T10:18:14;101127.72;;;26.31;100.00
77626;BME280;66794;43.764;10.436;2023-06-14T10:23:30;101125.38;;;26.91;100.00
77626;BME280;66794;43.764;10.436;2023-06-14T10:25:57;101125.66;;;26.84;100.00
77626;BME280;66794;43.764;10.436;2023-06-14T10:28:25;101124.81;;;26.79;100.00
77626;BME280;66794;43.764;10.436;2023-06-14T10:31:10;101123.47;;;26.81;100.00
77626;BME280;66794;43.764;10.436;2023-06-14T10:38:46;101120.69;;;26.91;100.00
77626;BME280;66794;43.764;10.436;2023-06-14T10:41:11;101127.63;;;27.04;100.00
77626;BME280;66794;43.764;10.436;2023-06-14T10:43:36;101119.59;;;27.48;100.00
77626;BME280;66794;43.764;10.436;2023-06-14T10:46:18;101108.19;;;26.99;100.00
77626;BME280;66794;43.764;10.436;2023-06-14T10:48:46;101103.47;;;27.30;100.00
77626;BME280;66794;43.764;10.436;2023-06-14T10:51:19;101116.41;;;28.11;100.00
77626;BME280;66794;43.764;10.436;2023-06-14T10:53:49;101098.69;;;27.61;100.00
77626;BME280;66794;43.764;10.436;2023-06-14T10:56:29;101122.59;;;26.91;100.00
77626;BME280;66794;43.764;10.436;2023-06-14T10:58:57;101103.38;;;26.48;100.00
77626;BME280;66794;43.764;10.436;2023-06-14T11:01:35;101090.38;;;26.85;100.00
77626;BME280;66794;43.764;10.436;2023-06-14T11:04:09;101084.03;;;27.10;100.00
77626;BME280;66794;43.764;10.436;2023-06-14T11:06:45;101101.19;;;27.68;100.00
77626;BME280;66794;43.764;10.436;2023-06-14T11:12:09;101086.47;;;27.62;100.00
77626;BME280;66794;43.764;10.436;2023-06-14T11:14:36;101074.06;;;28.09;100.00
77626;BME280;66794;43.764;10.436;2023-06-14T11:17:01;101076.69;;;27.65;100.00
77626;BME280;66794;43.764;10.436;2023-06-14T11:19:27;101076.91;;;28.53;100.00
77626;BME280;66794;43.764;10.436;2023-06-14T11:21:54;101075.97;;;28.68;100.00
77626;BME280;66794;43.764;10.436;2023-06-14T11:24:20;101062.59;;;28.65;100.00
77626;BME280;66794;43.764;10.436;2023-06-14T11:26:47;101072.81;;;27.61;100.00
77626;BME280;66794;43.764;10.436;2023-06-14T11:29:15;101075.41;;;28.22;100.00
77626;BME280;66794;43.764;10.436;2023-06-14T11:31:43;101075.94;;;27.23;100.00
77626;BME280;66794;43.764;10.436;2023-06-14T11:34:11;101073.69;;;26.54;100.00
77626;BME280;66794;43.764;10.436;2023-06-14T11:36:38;101074.22;;;27.58;100.00
77626;BME280;66794;43.764;10.436;2023-06-14T11:39:05;101051.19;;;26.66;100.00
77626;BME280;66794;43.764;10.436;2023-06-14T11:41:44;101060.94;;;26.94;100.00
77626;BME280;66794;43.764;10.436;2023-06-14T11:44:10;101059.53;;;27.27;100.00
77626;BME280;66794;43.764;10.436;2023-06-14T11:46:37;101064.78;;;27.49;100.00
77626;BME280;66794;43.764;10.436;2023-06-14T11:49:03;101053.44;;;27.25;100.00
77626;BME280;66794;43.764;10.436;2023-06-14T11:51:33;101055.91;;;26.86;100.00
77626;BME280;66794;43.764;10.436;2023-06-14T11:54:02;101050.91;;;26.83;100.00
77626;BME280;66794;43.764;10.436;2023-06-14T11:56:29;101030.91;;;27.06;100.00
77626;BME280;66794;43.764;10.436;2023-06-14T11:58:55;101047.56;;;26.91;100.00
77626;BME280;66794;43.764;10.436;2023-06-14T12:01:22;101046.13;;;27.49;100.00
77626;BME280;66794;43.764;10.436;2023-06-14T12:03:53;101040.34;;;27.31;100.00
77626;BME280;66794;43.764;10.436;2023-06-14T12:06:29;101057.94;;;25.44;100.00
77626;BME280;66794;43.764;10.436;2023-06-14T12:08:58;101069.84;;;25.45;100.00
77626;BME280;66794;43.764;10.436;2023-06-14T12:11:24;101076.03;;;25.20;100.00
77626;BME280;66794;43.764;10.436;2023-06-14T12:13:53;101067.50;;;24.95;100.00
77626;BME280;66794;43.764;10.436;2023-06-14T12:16:18;101080.84;;;25.30;100.00
77626;BME280;66794;43.764;10.436;2023-06-14T12:18:44;101085.44;;;25.14;100.00
77626;BME280;66794;43.764;10.436;2023-06-14T12:21:11;101092.91;;;24.86;100.00
77626;BME280;66794;43.764;10.436;2023-06-14T12:23:45;101080.22;;;25.23;100.00
77626;BME280;66794;43.764;10.436;2023-06-14T12:26:15;101081.22;;;25.11;100.00
77626;BME280;66794;43.764;10.436;2023-06-14T12:28:42;101092.59;;;24.83;100.00
77626;BME280;66794;43.764;10.436;2023-06-14T12:31:09;101058.66;;;24.98;100.00
77626;BME280;66794;43.764;10.436;2023-06-14T12:33:34;101092.38;;;25.59;100.00
77626;BME280;66794;43.764;10.436;2023-06-14T12:36:03;101088.50;;;26.07;100.00
77626;BME280;66794;43.764;10.436;2023-06-14T12:38:30;101080.09;;;26.80;100.00
77626;BME280;66794;43.764;10.436;2023-06-14T12:40:55;101067.88;;;27.37;100.00
77626;BME280;66794;43.764;10.436;2023-06-14T12:43:21;101062.22;;;26.35;100.00
77626;BME280;66794;43.764;10.436;2023-06-14T12:45:46;101073.59;;;25.71;100.00
77626;BME280;66794;43.764;10.436;2023-06-14T12:48:12;101086.34;;;25.25;100.00
77626;BME280;66794;43.764;10.436;2023-06-14T12:50:37;101081.44;;;25.05;100.00
77626;BME280;66794;43.764;10.436;2023-06-14T12:53:02;101074.44;;;24.65;100.00
77626;BME280;66794;43.764;10.436;2023-06-14T12:55:28;101085.56;;;24.70;100.00
77626;BME280;66794;43.764;10.436;2023-06-14T12:57:53;101093.66;;;24.28;100.00
77626;BME280;66794;43.764;10.436;2023-06-14T13:00:19;101089.56;;;24.57;100.00
77626;BME280;66794;43.764;10.436;2023-06-14T13:02:46;101080.66;;;24.28;100.00
77626;BME280;66794;43.764;10.436;2023-06-14T13:05:12;101096.09;;;24.46;100.00
77626;BME280;66794;43.764;10.436;2023-06-14T13:07:38;101087.72;;;24.14;100.00
77626;BME280;66794;43.764;10.436;2023-06-14T13:10:03;101080.47;;;23.91;100.00
77626;BME280;66794;43.764;10.436;2023-06-14T13:12:29;101101.75;;;23.52;100.00
77626;BME280;66794;43.764;10.436;2023-06-14T13:14:55;101117.03;;;23.54;100.00
77626;BME280;66794;43.764;10.436;2023-06-14T13:17:20;101131.69;;;23.72;100.00
77626;BME280;66794;43.764;10.436;2023-06-14T13:19:46;101187.75;;;22.36;100.00
77626;BME280;66794;43.764;10.436;2023-06-14T13:22:11;101220.19;;;21.82;100.00
77626;BME280;66794;43.764;10.436;2023-06-14T13:24:37;101238.38;;;21.60;100.00
77626;BME280;66794;43.764;10.436;2023-06-14T13:27:02;101216.47;;;21.65;100.00
77626;BME280;66794;43.764;10.436;2023-06-14T13:29:28;101243.47;;;21.33;100.00